Lai Airport

FTTH · Tandjilé, 乍得

METAR FTTH · Lai Airport

15 七月 11:00 LT
52m
使用的METAR站距离机场89 km。
罗盘
风向 的 风向 320° Lai Airport 5/23
风: 4 kt, 2 beaufort


4 kt
改变
0 ft 1.000 2.000 3.000 4.000 5.000
Cloud Cloud
FEW 4.000
Cloud Cloud
FEW 5.000
METAR FTTD 151000Z 32004KT 9999 FEW040 FEW050CB 29/24 Q1016

METAR Lai Airport - FTTH/LTC

Lai Airport是,乍得中的小机场。 该机场位于纬度9,39790和经度16,31250。 该机场有一条跑道: 5/23. 本场的ICAO机场代码为FTTH。 该机场的IATA代码为LTC。 机场在N Djamena FIR中。

该航空气象观测是针对Moundou Airport在2024年7月15日 11:00, 当地时间进行的。

机场观察

风向为320°,速度为4 kt。

可见度为10 km 或者更多。

有几云在4.000 ft的高度 和 几云 积雨云在5.000 ft的高度。 没有观察到天花板。

温度和风寒是29 °C。 热指数为33。 露点为24 °C,相对湿度为74%。 海平面上的气压为1016 hPa (QNH)。

白天

今天,太阳从05:42升起,在18:19降落。 这适用于Lai Airport,世界夏令时可能有所不同。 当地时间与世界标准时间之间的时差为+1 小时。 夏令时目前正在进行中。

公司介绍

我们没有关于这个机场的公司信息。

体会

到Vliegles.nl去找飞行课程,跳伞和其他飞行体验。 浏览页面,了解Lai Airport附近所有可用的活动。 你也可以使用搜索功能来寻找你所在地附近的特定飞行课程、跳伞或其他飞行体验。

跑道

Id 标题 侧风 逆风 侧风 %
5/23 048°-228° 4 kt 100 %

逆风成分最大的方向会被突出显示,并用于横风计算。 这并不一定意味着这个方向在使用。

乌云

4.000 ft FEW 几云
5.000 ft FEW 几云 积雨云

温度 & 天气

温度 29 °C
露点 24 °C
相对湿度 74%
热度指数 33 °C
Kp-index 1 (0-9)

白天

日出
05:44
中午
12:01
日落
18:19 (6:26)

小工具

你想在你的网站上有一个关于Lai Airport的当前航空天气(METAR)的小部件吗?

显示HTML代码
报告变更